createdAt,value
2018-05-11T00:00:30.245Z,89.30
2018-05-11T00:02:57.861Z,89.00
2018-05-11T00:05:24.904Z,89.10
2018-05-11T00:07:51.174Z,89.20
2018-05-11T00:10:17.653Z,88.50
2018-05-11T00:12:44.221Z,87.90
2018-05-11T00:15:11.088Z,89.70
2018-05-11T00:17:38.592Z,89.10
2018-05-11T00:20:06.473Z,89.30
2018-05-11T00:22:34.024Z,89.00
2018-05-11T00:25:00.992Z,90.50
2018-05-11T00:27:27.197Z,90.60
2018-05-11T00:29:54.172Z,90.30
2018-05-11T00:32:20.388Z,89.60
2018-05-11T00:34:47.437Z,87.90
2018-05-11T00:37:13.736Z,88.50
2018-05-11T00:39:39.941Z,89.60
2018-05-11T00:42:06.191Z,88.50
2018-05-11T00:44:32.429Z,91.30
2018-05-11T00:46:59.541Z,91.80
2018-05-11T00:49:27.218Z,91.60
2018-05-11T00:51:54.901Z,94.10
2018-05-11T00:54:21.123Z,94.10
2018-05-11T00:56:47.801Z,94.90
2018-05-11T00:59:14.600Z,93.60
2018-05-11T01:01:41.595Z,95.50
2018-05-11T01:04:09.044Z,95.50
2018-05-11T01:06:35.305Z,94.70
2018-05-11T01:09:01.997Z,97.20
2018-05-11T01:11:28.967Z,97.30
2018-05-11T01:13:55.537Z,97.50
2018-05-11T01:16:21.783Z,96.50
2018-05-11T01:18:48.786Z,99.00
2018-05-11T01:21:16.742Z,99.70
2018-05-11T01:23:43.733Z,98.50
2018-05-11T01:26:09.958Z,98.50
2018-05-11T01:28:36.193Z,99.50
2018-05-11T01:31:02.438Z,99.90
2018-05-11T01:33:28.939Z,99.90
2018-05-11T01:35:55.918Z,98.10
2018-05-11T01:38:22.134Z,98.20
2018-05-11T01:40:49.617Z,99.90
2018-05-11T01:43:16.430Z,99.90
2018-05-11T01:45:44.030Z,99.70
2018-05-11T01:48:10.709Z,99.70
2018-05-11T01:50:37.421Z,99.90
2018-05-11T01:53:03.645Z,99.90
2018-05-11T01:55:30.470Z,99.90
2018-05-11T01:57:57.437Z,99.90
2018-05-11T02:00:24.087Z,99.90
2018-05-11T02:02:50.341Z,99.90
2018-05-11T02:05:16.996Z,99.90
2018-05-11T02:07:43.550Z,99.90
2018-05-11T02:10:09.765Z,99.90
2018-05-11T02:12:35.993Z,99.90
2018-05-11T02:15:02.878Z,99.90
2018-05-11T02:17:29.657Z,99.90
2018-05-11T02:19:56.445Z,99.90
2018-05-11T02:22:23.245Z,99.90
2018-05-11T02:24:50.213Z,99.90
2018-05-11T02:27:17.141Z,99.90
2018-05-11T02:29:44.112Z,99.90
2018-05-11T02:32:10.325Z,99.90
2018-05-11T02:34:37.309Z,99.90
2018-05-11T02:37:03.537Z,99.90
2018-05-11T02:39:29.853Z,99.90
2018-05-11T02:41:57.477Z,99.90
2018-05-11T02:44:24.106Z,99.90
2018-05-11T02:46:50.301Z,99.90
2018-05-11T02:49:17.105Z,99.90
2018-05-11T02:51:44.043Z,99.90
2018-05-11T02:54:10.265Z,99.90
2018-05-11T02:56:36.797Z,99.90
2018-05-11T02:59:03.040Z,99.90
2018-05-11T03:01:29.255Z,99.90
2018-05-11T03:03:55.985Z,99.90
2018-05-11T03:06:22.946Z,99.90
2018-05-11T03:08:49.220Z,99.90
2018-05-11T03:11:15.442Z,99.90
2018-05-11T03:13:42.085Z,99.90
2018-05-11T03:16:08.301Z,99.90
2018-05-11T03:18:34.591Z,99.90
2018-05-11T03:21:01.454Z,99.90
2018-05-11T03:23:28.913Z,99.90
2018-05-11T03:25:55.873Z,99.90
2018-05-11T03:28:22.813Z,99.90
2018-05-11T03:30:49.773Z,99.90
2018-05-11T03:33:16.724Z,99.90
2018-05-11T03:35:43.776Z,99.90
2018-05-11T03:38:11.397Z,99.90
2018-05-11T03:40:37.637Z,99.90
2018-05-11T03:43:04.365Z,99.90
2018-05-11T03:45:30.608Z,99.90
2018-05-11T03:47:57.509Z,99.90
2018-05-11T03:50:25.173Z,99.90
2018-05-11T03:52:52.125Z,99.90
2018-05-11T03:55:18.333Z,99.90
2018-05-11T03:57:44.944Z,99.90
2018-05-11T04:00:11.173Z,99.40
2018-05-11T04:02:50.764Z,99.60
2018-05-11T04:05:30.754Z,99.90
2018-05-11T04:08:09.373Z,99.90
2018-05-11T04:10:35.620Z,99.90
2018-05-11T04:13:03.592Z,99.90
2018-05-11T04:15:29.785Z,99.90
2018-05-11T04:17:57.051Z,99.90
2018-05-11T04:20:23.261Z,98.20
2018-05-11T04:22:50.845Z,99.90
2018-05-11T04:25:17.072Z,99.90
2018-05-11T04:27:43.313Z,99.60
2018-05-11T04:30:09.620Z,98.40
2018-05-11T04:32:35.950Z,97.20
2018-05-11T04:35:04.977Z,98.50
2018-05-11T04:37:31.179Z,98.10
2018-05-11T04:39:57.785Z,98.50
2018-05-11T04:42:24.004Z,98.70
2018-05-11T04:44:50.613Z,99.90
2018-05-11T04:47:18.030Z,98.80
2018-05-11T04:49:44.833Z,98.90
2018-05-11T04:52:12.155Z,96.90
2018-05-11T04:54:38.381Z,96.60
2018-05-11T04:57:05.065Z,97.80
2018-05-11T04:59:32.358Z,96.60
2018-05-11T05:01:58.583Z,96.50
2018-05-11T05:04:25.921Z,96.90
2018-05-11T05:06:52.893Z,96.20
2018-05-11T05:09:19.445Z,96.20
2018-05-11T05:11:45.673Z,97.30
2018-05-11T05:14:12.797Z,96.20
2018-05-11T05:16:39.775Z,95.80
2018-05-11T05:19:06.675Z,95.70
2018-05-11T05:21:34.085Z,94.30
2018-05-11T05:24:00.301Z,94.20
2018-05-11T05:26:28.525Z,93.40
2018-05-11T05:28:54.749Z,93.30
2018-05-11T05:31:20.966Z,93.50
2018-05-11T05:33:47.867Z,94.10
2018-05-11T05:36:14.489Z,92.60
2018-05-11T05:38:40.702Z,92.10
2018-05-11T05:41:06.901Z,92.10
2018-05-11T05:43:34.232Z,92.20
2018-05-11T05:46:00.999Z,91.90
2018-05-11T05:48:28.461Z,91.90
2018-05-11T05:50:56.261Z,90.60
2018-05-11T05:53:22.481Z,90.40
2018-05-11T05:55:49.168Z,89.20
2018-05-11T05:58:15.680Z,88.40
2018-05-11T06:00:41.893Z,89.50
2018-05-11T06:03:08.859Z,87.20
2018-05-11T06:05:35.532Z,87.20
2018-05-11T06:08:02.063Z,88.70
2018-05-11T06:10:28.293Z,88.60
2018-05-11T06:12:54.905Z,86.90
2018-05-11T06:15:22.205Z,86.00
2018-05-11T06:17:48.816Z,86.00
2018-05-11T06:20:15.062Z,85.80
2018-05-11T06:22:42.112Z,85.30
2018-05-11T06:25:08.346Z,85.30
2018-05-11T06:27:34.602Z,82.70
2018-05-11T06:30:00.877Z,84.70
2018-05-11T06:32:27.645Z,84.40
2018-05-11T06:34:55.205Z,83.30
2018-05-11T06:37:22.282Z,82.90
2018-05-11T06:39:48.998Z,83.00
2018-05-11T06:42:16.785Z,82.70
2018-05-11T06:44:43.027Z,82.70
2018-05-11T06:47:09.853Z,80.40
2018-05-11T06:49:37.832Z,81.70
2018-05-11T06:52:05.128Z,82.40
2018-05-11T06:54:32.791Z,82.60
2018-05-11T06:56:59.714Z,81.50
2018-05-11T06:59:25.936Z,79.20
2018-05-11T07:01:53.026Z,79.10
2018-05-11T07:04:19.735Z,78.10
2018-05-11T07:06:46.693Z,79.10
2018-05-11T07:09:14.140Z,77.70
2018-05-11T07:11:41.097Z,79.70
2018-05-11T07:14:08.507Z,79.00
2018-05-11T07:16:34.726Z,78.60
2018-05-11T07:19:00.967Z,79.10
2018-05-11T07:21:27.237Z,78.00
2018-05-11T07:23:53.454Z,78.30
2018-05-11T07:26:19.778Z,75.50
2018-05-11T07:28:46.616Z,75.20
2018-05-11T07:31:12.873Z,74.70
2018-05-11T07:33:39.377Z,73.20
2018-05-11T07:36:05.614Z,74.90
2018-05-11T07:38:32.246Z,73.70
2018-05-11T07:40:58.950Z,73.90
2018-05-11T07:43:25.292Z,75.60
2018-05-11T07:45:52.159Z,75.70
2018-05-11T07:48:19.549Z,73.70
2018-05-11T07:50:46.200Z,73.60
2018-05-11T07:53:12.857Z,71.50
2018-05-11T07:55:39.649Z,73.60
2018-05-11T07:58:06.611Z,74.10
2018-05-11T08:00:34.374Z,72.50
2018-05-11T08:03:02.260Z,71.30
2018-05-11T08:05:28.863Z,71.00
2018-05-11T08:07:55.084Z,71.20
2018-05-11T08:10:21.983Z,72.10
2018-05-11T08:12:48.211Z,68.10
2018-05-11T08:15:15.201Z,70.30
2018-05-11T08:17:41.468Z,70.40
2018-05-11T08:20:08.063Z,70.60
2018-05-11T08:22:34.311Z,68.40
2018-05-11T08:25:00.532Z,68.30
2018-05-11T08:27:27.156Z,67.60
2018-05-11T08:29:53.816Z,68.10
2018-05-11T08:32:20.046Z,67.30
2018-05-11T08:34:47.285Z,67.10
2018-05-11T08:37:14.951Z,66.10
2018-05-11T08:39:41.909Z,64.10
2018-05-11T08:42:08.155Z,63.80
2018-05-11T08:44:34.384Z,65.00
2018-05-11T08:47:02.319Z,64.70
2018-05-11T08:49:29.983Z,64.00
2018-05-11T08:51:56.650Z,63.40
2018-05-11T08:54:23.609Z,65.80
2018-05-11T08:56:51.272Z,64.50
2018-05-11T08:59:18.642Z,64.80
2018-05-11T09:01:45.369Z,64.60
2018-05-11T09:04:12.774Z,64.10
2018-05-11T09:06:39.353Z,64.10
2018-05-11T09:09:07.049Z,64.80
2018-05-11T09:11:34.014Z,65.10
2018-05-11T09:14:00.252Z,65.00
2018-05-11T09:16:26.489Z,66.90
2018-05-11T09:18:52.813Z,66.00
2018-05-11T09:21:19.614Z,66.10
2018-05-11T09:23:46.226Z,66.30
2018-05-11T09:26:12.429Z,66.20
2018-05-11T09:28:39.762Z,66.50
2018-05-11T09:31:05.992Z,66.40
2018-05-11T09:33:32.975Z,67.40
2018-05-11T09:36:00.534Z,67.00
2018-05-11T09:38:28.104Z,67.10
2018-05-11T09:40:55.066Z,67.70
2018-05-11T09:43:21.285Z,67.70
2018-05-11T09:45:48.274Z,66.20
2018-05-11T09:48:14.990Z,66.00
2018-05-11T09:50:41.821Z,66.00
2018-05-11T09:53:08.773Z,66.70
2018-05-11T09:55:36.338Z,65.00
2018-05-11T09:58:03.869Z,64.90
2018-05-11T10:00:30.563Z,64.70
2018-05-11T10:02:56.773Z,65.60
2018-05-11T10:05:24.379Z,66.80
2018-05-11T10:07:50.632Z,66.90
2018-05-11T10:10:16.861Z,65.30
2018-05-11T10:12:43.101Z,65.70
2018-05-11T10:15:09.334Z,63.60
2018-05-11T10:17:35.631Z,63.90
2018-05-11T10:20:01.913Z,64.20
2018-05-11T10:22:29.520Z,63.80
2018-05-11T10:24:56.920Z,63.60
2018-05-11T10:27:23.185Z,63.60
2018-05-11T10:29:49.421Z,64.00
2018-05-11T10:32:16.073Z,63.90
2018-05-11T10:34:42.322Z,63.20
2018-05-11T10:37:09.281Z,61.10
2018-05-11T10:39:36.291Z,62.90
2018-05-11T10:42:02.515Z,62.90
2018-05-11T10:44:29.214Z,61.10
2018-05-11T10:46:57.285Z,61.40
2018-05-11T10:49:25.020Z,61.20
2018-05-11T10:51:51.519Z,61.20
2018-05-11T10:54:18.441Z,61.60
2018-05-11T10:56:47.513Z,60.50
2018-05-11T10:59:14.235Z,60.50
2018-05-11T11:01:40.456Z,61.10
2018-05-11T11:04:07.272Z,59.30
2018-05-11T11:06:34.299Z,58.60
2018-05-11T11:09:00.543Z,58.30
2018-05-11T11:11:28.192Z,60.20
2018-05-11T11:13:54.445Z,60.10
2018-05-11T11:16:21.405Z,59.80
2018-05-11T11:18:49.693Z,60.20
2018-05-11T11:21:17.240Z,58.90
2018-05-11T11:23:43.805Z,58.90
2018-05-11T11:26:10.045Z,59.30
2018-05-11T11:28:36.261Z,58.10
2018-05-11T11:31:03.937Z,57.70
2018-05-11T11:33:30.161Z,57.50
2018-05-11T11:35:57.126Z,57.50
2018-05-11T11:38:23.374Z,57.40
2018-05-11T11:40:49.646Z,57.40
2018-05-11T11:43:16.192Z,58.10
2018-05-11T11:45:42.409Z,57.00
2018-05-11T11:48:09.075Z,56.70
2018-05-11T11:50:35.749Z,57.10
2018-05-11T11:53:03.041Z,57.30
2018-05-11T11:55:29.257Z,57.30
2018-05-11T11:57:55.981Z,56.80
2018-05-11T12:00:22.941Z,56.10
2018-05-11T12:02:49.904Z,55.90
2018-05-11T12:05:16.437Z,55.80
2018-05-11T12:07:42.657Z,55.20
2018-05-11T12:10:09.945Z,55.10
2018-05-11T12:12:36.182Z,55.00
2018-05-11T12:15:02.438Z,54.80
2018-05-11T12:17:29.072Z,55.00
2018-05-11T12:19:55.800Z,55.20
2018-05-11T12:22:22.017Z,56.20
2018-05-11T12:24:48.977Z,54.50
2018-05-11T12:27:15.822Z,54.20
2018-05-11T12:29:42.041Z,54.50
2018-05-11T12:32:09.006Z,53.80
2018-05-11T12:34:35.817Z,53.90
2018-05-11T12:37:02.047Z,53.90
2018-05-11T12:39:29.349Z,53.70
2018-05-11T12:41:55.619Z,53.70
2018-05-11T12:44:21.895Z,53.70
2018-05-11T12:46:49.320Z,53.60
2018-05-11T12:49:16.130Z,53.50
2018-05-11T12:51:42.868Z,53.10
2018-05-11T12:54:09.094Z,53.10
2018-05-11T12:56:36.649Z,52.20
2018-05-11T12:59:03.599Z,51.60
2018-05-11T13:01:30.557Z,52.80
2018-05-11T13:03:58.132Z,53.20
2018-05-11T13:06:24.805Z,53.10
2018-05-11T13:08:51.013Z,52.40
2018-05-11T13:11:17.229Z,52.50
2018-05-11T13:13:45.101Z,50.60
2018-05-11T13:16:27.001Z,51.40
2018-05-11T13:18:53.951Z,50.80
2018-05-11T13:21:20.927Z,50.90
2018-05-11T13:23:47.141Z,50.70
2018-05-11T13:26:13.765Z,49.70
2018-05-11T13:28:40.728Z,50.40
2018-05-11T13:31:08.701Z,50.20
2018-05-11T13:33:34.933Z,50.70
2018-05-11T13:36:01.915Z,49.10
2018-05-11T13:38:28.609Z,49.00
2018-05-11T13:40:54.846Z,49.40
2018-05-11T13:43:21.089Z,49.80
2018-05-11T13:45:48.545Z,49.70
2018-05-11T13:48:15.413Z,49.70
2018-05-11T13:50:41.893Z,49.70
2018-05-11T13:53:08.125Z,49.20
2018-05-11T13:55:35.033Z,49.70
2018-05-11T13:58:02.079Z,46.60
2018-05-11T14:00:29.001Z,46.00
2018-05-11T14:02:57.780Z,45.60
2018-05-11T14:05:24.701Z,45.00
2018-05-11T14:07:50.970Z,43.40
2018-05-11T14:10:17.286Z,43.00
2018-05-11T14:12:43.832Z,42.60
2018-05-11T14:15:10.633Z,40.80
2018-05-11T14:17:38.057Z,40.70
2018-05-11T14:20:04.302Z,40.60
2018-05-11T14:22:31.113Z,40.40
2018-05-11T14:24:57.403Z,38.30
2018-05-11T14:27:23.561Z,39.30
2018-05-11T14:29:49.817Z,38.70
2018-05-11T14:32:16.038Z,38.10
2018-05-11T14:34:43.070Z,38.50
2018-05-11T14:37:10.051Z,38.20
2018-05-11T14:39:36.302Z,37.60
2018-05-11T14:42:03.096Z,38.50
2018-05-11T14:44:30.062Z,36.60
2018-05-11T14:46:57.252Z,36.60
2018-05-11T14:49:23.923Z,36.40
2018-05-11T14:51:50.789Z,36.40
2018-05-11T14:54:17.899Z,37.40
2018-05-11T14:56:44.598Z,37.30
2018-05-11T14:59:11.562Z,36.50
2018-05-11T15:01:38.630Z,36.60
2018-05-11T15:04:05.264Z,35.70
2018-05-11T15:06:32.294Z,35.80
2018-05-11T15:08:59.969Z,35.50
2018-05-11T15:11:26.937Z,34.10
2018-05-11T15:13:53.582Z,34.00
2018-05-11T15:16:19.801Z,35.60
2018-05-11T15:18:46.069Z,35.10
2018-05-11T15:21:12.976Z,35.00
2018-05-11T15:23:39.214Z,34.00
2018-05-11T15:26:05.434Z,35.20
2018-05-11T15:28:32.426Z,33.80
2018-05-11T15:30:58.985Z,33.70
2018-05-11T15:33:25.629Z,33.00
2018-05-11T15:35:51.864Z,32.00
2018-05-11T15:38:18.093Z,31.90
2018-05-11T15:40:44.990Z,33.20
2018-05-11T15:43:12.354Z,33.00
2018-05-11T15:45:39.321Z,32.00
2018-05-11T15:48:05.993Z,31.90
2018-05-11T15:50:32.689Z,31.70
2018-05-11T15:52:59.640Z,33.10
2018-05-11T15:55:26.685Z,34.40
2018-05-11T15:57:53.294Z,34.40
2018-05-11T16:00:19.554Z,36.10
2018-05-11T16:02:45.793Z,37.10
2018-05-11T16:05:12.451Z,38.20
2018-05-11T16:07:39.882Z,40.30
2018-05-11T16:10:06.871Z,39.80
2018-05-11T16:12:33.889Z,42.00
2018-05-11T16:15:00.096Z,42.00
2018-05-11T16:17:26.354Z,42.80
2018-05-11T16:19:53.125Z,43.60
2018-05-11T16:22:20.076Z,45.50
2018-05-11T16:24:47.540Z,45.70
2018-05-11T16:27:14.519Z,46.70
2018-05-11T16:29:40.804Z,46.70
2018-05-11T16:32:07.348Z,47.40
2018-05-11T16:34:35.509Z,47.80
2018-05-11T16:37:02.711Z,47.90
2018-05-11T16:39:30.092Z,48.70
2018-05-11T16:41:56.792Z,48.60
2018-05-11T16:44:23.514Z,49.20
2018-05-11T16:46:50.403Z,54.60
2018-05-11T16:49:18.007Z,54.60
2018-05-11T16:51:44.742Z,54.90
2018-05-11T16:54:10.982Z,54.10
2018-05-11T16:56:37.896Z,53.90
2018-05-11T16:59:05.224Z,56.90
2018-05-11T17:01:32.929Z,58.30
2018-05-11T17:04:00.601Z,59.30
2018-05-11T17:06:27.928Z,58.40
2018-05-11T17:08:56.141Z,57.70
2018-05-11T17:11:22.943Z,58.10
2018-05-11T17:13:49.203Z,58.50
2018-05-11T17:16:16.763Z,58.60
2018-05-11T17:18:42.987Z,58.70
2018-05-11T17:21:09.954Z,60.60
2018-05-11T17:23:36.981Z,65.00
2018-05-11T17:26:03.236Z,65.20
2018-05-11T17:28:29.937Z,63.90
2018-05-11T17:30:56.577Z,64.50
2018-05-11T17:33:22.901Z,63.60
2018-05-11T17:35:49.626Z,63.10
2018-05-11T17:38:16.460Z,62.60
2018-05-11T17:40:43.454Z,62.40
2018-05-11T17:43:09.689Z,62.60
2018-05-11T17:45:35.936Z,62.50
2018-05-11T17:48:02.597Z,63.00
2018-05-11T17:50:29.392Z,64.20
2018-05-11T17:52:55.625Z,64.80
2018-05-11T17:55:21.857Z,65.40
2018-05-11T17:57:48.469Z,66.90
2018-05-11T18:00:15.479Z,66.00
2018-05-11T18:02:42.201Z,66.30
2018-05-11T18:05:08.939Z,67.60
2018-05-11T18:07:35.173Z,70.60
2018-05-11T18:10:01.426Z,68.80
2018-05-11T18:12:28.364Z,70.10
2018-05-11T18:14:57.133Z,70.50
2018-05-11T18:17:24.122Z,69.00
2018-05-11T18:19:50.393Z,69.10
2018-05-11T18:22:16.669Z,68.90
2018-05-11T18:24:44.431Z,70.70
2018-05-11T18:27:12.139Z,69.70
2018-05-11T18:29:38.813Z,69.80
2018-05-11T18:32:05.107Z,70.30
2018-05-11T18:34:31.821Z,69.60
2018-05-11T18:36:59.165Z,69.90
2018-05-11T18:39:26.485Z,71.00
2018-05-11T18:41:53.566Z,70.30
2018-05-11T18:44:20.341Z,69.30
2018-05-11T18:46:47.909Z,69.30
2018-05-11T18:49:14.566Z,69.30
2018-05-11T18:51:41.101Z,69.10
2018-05-11T18:54:07.599Z,70.30
2018-05-11T18:56:34.047Z,71.60
2018-05-11T18:59:00.285Z,72.60
2018-05-11T19:01:27.869Z,72.70
2018-05-11T19:03:55.482Z,72.00
2018-05-11T19:06:22.719Z,72.20
2018-05-11T19:08:49.527Z,71.10
2018-05-11T19:11:17.237Z,71.70
2018-05-11T19:13:44.261Z,71.80
2018-05-11T19:16:10.606Z,73.00
2018-05-11T19:18:36.930Z,71.80
2018-05-11T19:21:03.501Z,72.30
2018-05-11T19:23:30.543Z,73.30
2018-05-11T19:25:56.757Z,72.30
2018-05-11T19:28:23.725Z,72.90
2018-05-11T19:30:50.616Z,73.10
2018-05-11T19:33:17.477Z,72.90
2018-05-11T19:35:44.209Z,72.80
2018-05-11T19:38:10.955Z,72.00
2018-05-11T19:40:37.626Z,72.60
2018-05-11T19:43:04.268Z,72.20
2018-05-11T19:45:30.502Z,72.60
2018-05-11T19:47:57.097Z,72.50
2018-05-11T19:50:23.912Z,74.10
2018-05-11T19:52:51.296Z,75.20
2018-05-11T19:55:17.529Z,75.40
2018-05-11T19:57:44.253Z,75.40
2018-05-11T20:00:11.763Z,77.40
2018-05-11T20:02:38.465Z,77.50
2018-05-11T20:05:05.910Z,79.20
2018-05-11T20:07:32.883Z,78.00
2018-05-11T20:09:59.633Z,78.00
2018-05-11T20:12:25.805Z,77.40
2018-05-11T20:14:52.032Z,77.40
2018-05-11T20:17:18.345Z,77.00
2018-05-11T20:19:44.579Z,77.10
2018-05-11T20:22:11.680Z,77.50
2018-05-11T20:24:37.911Z,78.20
2018-05-11T20:27:05.247Z,78.40
2018-05-11T20:29:31.486Z,78.60
2018-05-11T20:31:58.138Z,78.10
2018-05-11T20:34:24.796Z,78.50
2018-05-11T20:36:51.038Z,79.80
2018-05-11T20:39:17.653Z,80.00
2018-05-11T20:41:44.398Z,79.80
2018-05-11T20:44:11.045Z,79.40
2018-05-11T20:46:37.698Z,81.60
2018-05-11T20:49:05.230Z,79.70
2018-05-11T20:51:31.877Z,79.90
2018-05-11T20:53:58.113Z,80.70
2018-05-11T20:56:24.847Z,80.10
2018-05-11T20:58:51.895Z,80.40
2018-05-11T21:01:18.120Z,80.20
2018-05-11T21:03:44.465Z,80.70
2018-05-11T21:06:11.221Z,80.50
2018-05-11T21:08:37.789Z,80.30
2018-05-11T21:11:04.462Z,80.40
2018-05-11T21:13:31.438Z,80.20
2018-05-11T21:15:58.194Z,80.10
2018-05-11T21:18:25.032Z,81.30
2018-05-11T21:20:51.295Z,81.00
2018-05-11T21:23:17.512Z,82.90
2018-05-11T21:25:43.766Z,82.70
2018-05-11T21:28:10.390Z,81.40
2018-05-11T21:30:36.615Z,81.30
2018-05-11T21:33:02.841Z,81.20
2018-05-11T21:35:29.513Z,80.70
2018-05-11T21:37:55.721Z,80.90
2018-05-11T21:40:21.952Z,81.20
2018-05-11T21:42:48.175Z,81.20
2018-05-11T21:45:15.166Z,83.30
2018-05-11T21:47:42.021Z,83.20
2018-05-11T21:50:08.968Z,82.10
2018-05-11T21:52:35.649Z,83.00
2018-05-11T21:55:01.873Z,82.20
2018-05-11T21:57:28.856Z,82.60
2018-05-11T21:59:56.345Z,82.00
2018-05-11T22:02:23.062Z,82.10
2018-05-11T22:04:50.662Z,83.00
2018-05-11T22:07:16.880Z,83.10
2018-05-11T22:09:43.534Z,83.20
2018-05-11T22:12:09.777Z,83.10
2018-05-11T22:14:35.981Z,82.80
2018-05-11T22:17:03.131Z,84.30
2018-05-11T22:19:30.104Z,83.00
2018-05-11T22:21:56.336Z,83.10
2018-05-11T22:24:22.572Z,83.40
2018-05-11T22:26:50.221Z,83.40
2018-05-11T22:29:17.185Z,83.30
2018-05-11T22:31:43.397Z,83.20
2018-05-11T22:34:11.138Z,83.70
2018-05-11T22:36:37.344Z,83.70
2018-05-11T22:39:04.901Z,83.50
2018-05-11T22:41:31.119Z,83.50
2018-05-11T22:43:57.664Z,83.40
2018-05-11T22:46:23.904Z,83.10
2018-05-11T22:48:50.446Z,83.30
2018-05-11T22:51:17.205Z,85.00
2018-05-11T22:53:43.936Z,84.30
2018-05-11T22:56:10.597Z,85.10
2018-05-11T22:58:37.405Z,84.20
2018-05-11T23:01:05.060Z,85.50
2018-05-11T23:03:32.261Z,84.70
2018-05-11T23:05:59.117Z,84.80
2018-05-11T23:08:25.346Z,84.80
2018-05-11T23:10:52.253Z,85.40
2018-05-11T23:13:19.603Z,85.00
2018-05-11T23:15:46.557Z,85.60
2018-05-11T23:18:13.557Z,85.90
2018-05-11T23:20:39.792Z,85.80
2018-05-11T23:23:06.037Z,85.30
2018-05-11T23:25:32.820Z,87.20
2018-05-11T23:27:59.785Z,85.30
2018-05-11T23:30:26.769Z,85.40
2018-05-11T23:32:53.012Z,85.50
2018-05-11T23:35:20.942Z,85.40
2018-05-11T23:37:47.901Z,85.90
2018-05-11T23:40:29.112Z,85.90
2018-05-11T23:42:55.344Z,86.10
2018-05-11T23:45:21.656Z,88.20
2018-05-11T23:47:48.197Z,87.90
2018-05-11T23:50:14.917Z,88.60
2018-05-11T23:52:42.207Z,87.50
2018-05-11T23:55:08.416Z,87.60
2018-05-11T23:57:35.253Z,87.70
